Time;durP1;ratioP1;P1;durP2;ratioP2;P2;SDS_P1;SDS_P2;PMS_P1;PMS_P2;Temp;Humidity;BMP_temperature;BMP_pressure;BME280_temperature;BME280_humidity;BME280_pressure;Samples;Min_cycle;Max_cycle;Signal;HPM_P1;HPM_P2
2024/02/09 00:05:28;;;;;;;30.00;12.85;;;8.40;1.00;;;;;;20757129;28;20038;-42
2024/02/09 00:15:29;;;;;;;27.98;11.77;;;8.60;1.00;;;;;;20747523;28;20996;-42
2024/02/09 00:25:30;;;;;;;29.55;11.77;;;8.70;1.00;;;;;;20759415;28;20524;-42
2024/02/09 00:35:31;;;;;;;30.63;12.43;;;9.10;1.00;;;;;;20762439;28;20053;-41
2024/02/09 00:45:35;;;;;;;29.67;12.60;;;9.40;1.00;;;;;;20758383;28;20072;-41
2024/02/09 00:55:36;;;;;;;24.42;12.05;;;9.50;99.90;;;;;;20772291;28;20045;-42
2024/02/09 01:05:37;;;;;;;24.00;12.50;;;9.60;99.90;;;;;;20772768;28;20048;-41
2024/02/09 03:09:15;;;;;;;19.85;7.72;;;10.00;99.90;;;;;;20768937;28;20891;-41
2024/02/09 03:19:16;;;;;;;16.23;7.43;;;10.10;99.90;;;;;;20761916;28;20149;-41
2024/02/09 03:29:16;;;;;;;13.45;7.10;;;10.10;99.90;;;;;;20764866;28;20041;-41
2024/02/09 03:39:17;;;;;;;12.75;6.95;;;10.20;99.90;;;;;;20763068;28;20037;-42
2024/02/09 03:49:17;;;;;;;17.20;6.55;;;10.10;99.90;;;;;;20771359;28;20036;-41
2024/02/09 03:59:18;;;;;;;12.80;5.95;;;10.10;99.90;;;;;;20772217;28;20072;-41
2024/02/09 04:09:18;;;;;;;13.32;6.25;;;10.20;99.90;;;;;;20770932;28;20040;-41
2024/02/09 04:19:23;;;;;;;14.23;6.10;;;10.20;99.90;;;;;;20768618;28;20766;-41
2024/02/09 04:29:24;;;;;;;11.18;6.28;;;10.20;99.90;;;;;;20778704;28;20033;-42
2024/02/09 04:39:24;;;;;;;13.45;5.57;;;10.10;99.90;;;;;;20790095;28;20559;-42
2024/02/09 04:49:25;;;;;;;11.60;5.32;;;10.10;99.90;;;;;;20792526;28;20041;-42
2024/02/09 04:59:30;;;;;;;12.32;5.03;;;10.10;99.90;;;;;;20792030;28;20052;-42
2024/02/09 05:09:31;;;;;;;9.23;4.63;;;10.10;99.90;;;;;;20791141;28;20069;-42
2024/02/09 05:19:31;;;;;;;12.23;5.20;;;10.10;99.90;;;;;;20789790;28;20099;-42
2024/02/09 05:29:32;;;;;;;14.32;6.03;;;10.10;99.90;;;;;;20792611;28;20065;-42
2024/02/09 05:39:32;;;;;;;9.00;4.53;;;10.10;99.90;;;;;;20781397;28;20073;-41
2024/02/09 05:49:34;;;;;;;10.77;5.22;;;10.00;99.90;;;;;;20782980;28;20048;-41
2024/02/09 05:59:34;;;;;;;11.02;4.72;;;10.10;99.90;;;;;;20785102;28;20064;-41
2024/02/09 06:09:37;;;;;;;13.30;5.43;;;10.10;99.90;;;;;;20778327;28;20521;-41
2024/02/09 06:19:37;;;;;;;10.82;4.72;;;10.10;99.90;;;;;;20772486;28;20033;-41
2024/02/09 06:29:38;;;;;;;10.27;5.10;;;10.10;99.90;;;;;;20770859;28;20044;-41
2024/02/09 06:39:38;;;;;;;11.63;5.35;;;10.20;99.90;;;;;;20761709;28;20103;-41
2024/02/09 06:49:43;;;;;;;10.40;4.95;;;10.20;99.90;;;;;;20776654;28;20137;-41
2024/02/09 06:59:45;;;;;;;11.27;5.05;;;10.20;99.90;;;;;;20780214;28;20132;-41
2024/02/09 07:09:46;;;;;;;9.20;4.20;;;10.20;99.90;;;;;;20777466;28;20133;-41
2024/02/09 07:19:46;;;;;;;7.68;4.32;;;10.20;99.90;;;;;;20780576;28;20486;-41
2024/02/09 07:29:47;;;;;;;10.20;4.18;;;10.20;99.90;;;;;;20773305;28;20077;-41
2024/02/09 07:39:48;;;;;;;11.68;4.30;;;10.20;99.90;;;;;;20764028;28;20037;-41
2024/02/09 07:49:48;;;;;;;13.63;4.60;;;10.20;99.90;;;;;;20766922;28;20033;-41
2024/02/09 07:59:49;;;;;;;11.20;3.75;;;10.30;99.90;;;;;;20783033;28;20158;-40
2024/02/09 08:09:50;;;;;;;12.05;4.22;;;10.30;99.90;;;;;;20762798;28;20102;-41
2024/02/09 08:19:51;;;;;;;9.73;4.18;;;10.40;99.90;;;;;;20762285;28;20054;-41
2024/02/09 08:29:55;;;;;;;9.90;4.63;;;10.40;99.90;;;;;;20779815;28;20092;-41
2024/02/09 08:39:57;;;;;;;11.85;4.20;;;10.60;99.90;;;;;;20773310;28;20041;-41
2024/02/09 08:49:58;;;;;;;11.52;4.65;;;10.60;99.90;;;;;;20722525;28;20386;-39
2024/02/09 08:59:58;;;;;;;11.57;4.35;;;10.70;99.90;;;;;;20764661;28;20408;-39
2024/02/09 09:09:59;;;;;;;12.70;4.38;;;10.70;99.90;;;;;;20788147;28;20098;-39
2024/02/09 09:20:00;;;;;;;8.38;4.30;;;10.80;99.90;;;;;;20793351;28;20397;-39
2024/02/09 09:30:01;;;;;;;8.55;3.95;;;10.80;99.90;;;;;;20778851;28;20393;-40
2024/02/09 09:40:03;;;;;;;7.85;3.55;;;10.90;99.90;;;;;;20767009;28;20398;-40
2024/02/09 09:50:06;;;;;;;7.13;3.88;;;11.00;99.90;;;;;;20772474;28;20793;-40
2024/02/09 10:00:07;;;;;;;12.27;4.13;;;11.00;99.90;;;;;;20788440;28;20119;-40
2024/02/09 10:10:13;;;;;;;8.80;4.20;;;11.20;99.90;;;;;;20778971;28;20037;-40
2024/02/09 10:20:14;;;;;;;8.07;4.40;;;11.30;99.90;;;;;;20774119;28;20045;-40
2024/02/09 10:30:16;;;;;;;12.38;4.50;;;11.60;99.90;;;;;;20784492;28;20053;-40
2024/02/09 10:40:18;;;;;;;8.50;3.80;;;11.80;99.90;;;;;;20783515;28;20066;-40
2024/02/09 10:50:20;;;;;;;10.45;4.22;;;12.00;99.90;;;;;;20776787;28;20040;-40
2024/02/09 11:00:20;;;;;;;11.13;2.88;;;12.00;99.90;;;;;;20785761;28;20104;-40
2024/02/09 11:10:21;;;;;;;5.13;2.43;;;12.10;99.90;;;;;;20784382;28;20037;-40
2024/02/09 11:20:24;;;;;;;8.60;2.95;;;12.00;99.90;;;;;;20785142;28;20111;-40
2024/02/09 11:30:24;;;;;;;10.48;3.30;;;12.00;99.90;;;;;;20786692;28;20073;-40
2024/02/09 11:40:25;;;;;;;7.15;3.53;;;11.90;99.90;;;;;;20780977;28;20090;-40
2024/02/09 11:50:27;;;;;;;6.22;3.42;;;11.80;99.90;;;;;;20786037;28;20041;-40
2024/02/09 12:00:27;;;;;;;8.13;4.43;;;11.90;99.90;;;;;;20787375;28;20125;-40
2024/02/09 12:10:28;;;;;;;8.35;4.03;;;11.80;99.90;;;;;;20786527;28;20468;-40
2024/02/09 12:20:30;;;;;;;8.57;3.50;;;11.80;99.90;;;;;;20765308;28;20037;-40
2024/02/09 12:30:30;;;;;;;11.85;3.58;;;11.80;99.90;;;;;;20764135;28;20053;-40
2024/02/09 12:40:33;;;;;;;10.60;3.17;;;11.90;99.90;;;;;;20765962;28;20129;-40
2024/02/09 12:50:34;;;;;;;8.77;2.80;;;11.80;99.90;;;;;;20772982;28;20133;-40
2024/02/09 13:00:34;;;;;;;7.88;2.63;;;11.90;99.90;;;;;;20790928;28;20503;-40
2024/02/09 13:10:35;;;;;;;7.37;2.47;;;12.40;99.90;;;;;;20773940;28;20521;-40
2024/02/09 13:20:37;;;;;;;12.60;2.60;;;12.40;99.90;;;;;;20792013;28;20065;-40
2024/02/09 13:30:37;;;;;;;6.72;2.78;;;12.60;92.90;;;;;;20784031;28;20204;-40
2024/02/09 13:40:39;;;;;;;6.30;2.17;;;12.60;83.80;;;;;;20780412;28;20076;-40
2024/02/09 13:50:40;;;;;;;6.50;1.50;;;12.60;55.30;;;;;;20763223;28;20045;-40
2024/02/09 14:00:42;;;;;;;4.60;1.35;;;12.80;25.00;;;;;;20761439;28;20041;-40
2024/02/09 14:10:42;;;;;;;5.78;1.30;;;12.90;18.30;;;;;;20737517;28;20025;-40
2024/02/09 14:20:46;;;;;;;4.95;1.60;;;12.80;15.20;;;;;;20736471;28;20041;-40
2024/02/09 14:30:47;;;;;;;5.72;2.05;;;12.90;16.40;;;;;;20766289;28;20041;-40
2024/02/09 14:40:48;;;;;;;7.60;2.08;;;12.80;16.10;;;;;;20750068;28;20033;-40
2024/02/09 14:50:49;;;;;;;6.13;2.00;;;12.70;22.80;;;;;;20760759;28;20482;-40
2024/02/09 15:00:50;;;;;;;7.32;2.35;;;12.70;26.00;;;;;;20759026;28;20037;-41
2024/02/09 15:10:51;;;;;;;9.38;1.98;;;12.70;36.30;;;;;;20758442;28;20047;-41
2024/02/09 15:20:52;;;;;;;6.00;2.17;;;12.70;26.20;;;;;;20756701;28;20522;-40
2024/02/09 15:30:52;;;;;;;5.10;1.73;;;12.80;25.80;;;;;;20754425;28;20049;-40
2024/02/09 15:40:53;;;;;;;10.13;6.10;;;12.60;30.20;;;;;;20754351;28;20102;-41
2024/02/09 15:50:54;;;;;;;8.05;2.67;;;12.60;35.40;;;;;;20758064;28;20118;-40
2024/02/09 16:00:58;;;;;;;6.32;2.58;;;12.50;41.70;;;;;;20759643;28;20057;-40
2024/02/09 16:10:58;;;;;;;11.60;2.38;;;12.50;35.00;;;;;;20760072;28;20049;-40
2024/02/09 16:20:59;;;;;;;5.20;1.98;;;12.50;26.00;;;;;;20765705;28;20329;-40
2024/02/09 16:31:00;;;;;;;4.65;1.73;;;12.60;15.40;;;;;;20772995;28;20053;-41
2024/02/09 16:41:01;;;;;;;7.05;1.70;;;12.60;10.50;;;;;;20762846;28;20091;-40
2024/02/09 16:51:02;;;;;;;6.57;1.80;;;12.50;11.50;;;;;;20764343;28;20045;-40
2024/02/09 17:01:03;;;;;;;7.57;2.08;;;12.40;9.30;;;;;;20765843;28;20030;-40
2024/02/09 17:11:05;;;;;;;5.75;1.67;;;12.50;4.60;;;;;;20766086;28;20362;-40
2024/02/09 17:21:06;;;;;;;4.28;1.60;;;12.40;6.70;;;;;;20759140;28;20399;-40
2024/02/09 17:31:07;;;;;;;9.57;2.10;;;12.50;5.70;;;;;;20757134;28;20387;-40
2024/02/09 17:41:10;;;;;;;12.18;2.55;;;12.50;5.50;;;;;;20784719;28;20042;-40
2024/02/09 17:51:11;;;;;;;7.10;2.05;;;12.50;6.20;;;;;;20790234;28;20104;-41
2024/02/09 18:01:11;;;;;;;6.60;1.45;;;12.30;11.50;;;;;;20775510;28;20045;-40
2024/02/09 18:11:12;;;;;;;4.50;1.77;;;12.30;11.90;;;;;;20764935;28;20045;-40
2024/02/09 18:21:17;;;;;;;6.93;2.03;;;12.30;11.20;;;;;;20758806;28;20037;-40
2024/02/09 18:31:20;;;;;;;5.05;2.15;;;12.40;8.30;;;;;;20751290;28;20456;-41
2024/02/09 18:41:21;;;;;;;5.00;2.13;;;12.30;8.90;;;;;;20764664;28;20081;-41
2024/02/09 18:51:22;;;;;;;6.18;2.00;;;12.20;10.10;;;;;;20769082;28;20145;-40
2024/02/09 19:01:22;;;;;;;6.35;2.25;;;12.10;11.00;;;;;;20758066;28;20033;-40
2024/02/09 19:11:23;;;;;;;6.43;2.85;;;12.10;11.50;;;;;;20762868;28;20041;-40
2024/02/09 19:21:27;;;;;;;9.97;3.47;;;12.10;14.70;;;;;;20757888;28;20237;-41
2024/02/09 19:31:28;;;;;;;7.18;2.83;;;12.10;15.70;;;;;;20742700;28;20570;-40
2024/02/09 19:41:29;;;;;;;7.95;3.38;;;12.10;17.40;;;;;;20757428;28;20156;-41
2024/02/09 19:51:30;;;;;;;9.27;2.85;;;12.00;17.80;;;;;;20748950;28;20048;-40
2024/02/09 20:01:30;;;;;;;6.77;2.83;;;12.00;17.50;;;;;;20748586;28;20041;-40
2024/02/09 20:11:31;;;;;;;7.97;3.10;;;12.00;15.50;;;;;;20749029;28;20495;-40
2024/02/09 20:21:34;;;;;;;7.18;2.97;;;11.90;16.50;;;;;;20741879;28;20112;-40
2024/02/09 20:31:39;;;;;;;10.57;3.55;;;11.80;15.90;;;;;;20708873;28;20048;-40
2024/02/09 20:41:40;;;;;;;13.23;6.05;;;11.80;19.50;;;;;;20663632;28;20751;-40
2024/02/09 20:51:41;;;;;;;8.52;2.90;;;11.70;19.50;;;;;;20673455;28;20666;-41
2024/02/09 21:01:42;;;;;;;7.97;2.95;;;11.70;18.70;;;;;;20668690;28;20133;-41
2024/02/09 21:11:42;;;;;;;8.50;2.65;;;11.70;17.80;;;;;;20683309;28;20403;-40
2024/02/09 21:21:43;;;;;;;9.05;3.40;;;11.80;12.90;;;;;;20676368;28;20425;-41
2024/02/09 21:31:45;;;;;;;10.23;3.42;;;11.90;11.40;;;;;;20715920;28;20045;-41
2024/02/09 21:41:46;;;;;;;12.73;3.30;;;11.80;11.00;;;;;;20750404;28;20400;-40
2024/02/09 21:51:46;;;;;;;8.85;3.00;;;11.80;10.40;;;;;;20758165;28;20041;-40
2024/02/09 22:01:47;;;;;;;9.68;3.20;;;11.80;9.60;;;;;;20772347;28;20580;-40
2024/02/09 22:11:48;;;;;;;9.98;3.10;;;11.80;11.60;;;;;;20788117;28;20053;-40
2024/02/09 22:21:49;;;;;;;7.82;2.67;;;11.80;10.60;;;;;;20788451;28;20071;-41
2024/02/09 22:31:49;;;;;;;10.85;3.15;;;11.70;14.50;;;;;;20783198;28;20448;-40
2024/02/09 22:41:50;;;;;;;10.32;2.60;;;11.70;14.20;;;;;;20790087;28;20065;-41
2024/02/09 22:51:54;;;;;;;7.45;3.10;;;11.80;12.20;;;;;;20785388;28;20500;-41
2024/02/09 23:01:54;;;;;;;8.98;3.25;;;11.90;11.90;;;;;;20787462;28;20076;-40
2024/02/09 23:11:55;;;;;;;10.27;2.95;;;11.90;10.20;;;;;;20787891;28;20059;-40
2024/02/09 23:21:56;;;;;;;8.48;3.58;;;11.90;9.50;;;;;;20787110;28;20095;-40
2024/02/09 23:31:58;;;;;;;8.90;3.00;;;11.80;10.80;;;;;;20782373;28;20584;-41
2024/02/09 23:41:59;;;;;;;8.93;3.03;;;11.70;13.10;;;;;;20783704;28;20562;-40
2024/02/09 23:52:00;;;;;;;11.45;3.28;;;11.60;14.30;;;;;;20772308;28;20046;-40
